Estevan Point, Canada
Current Conditions -  °F | °C
As of 2:00 PM on Sunday 25 Jan 2015 (Local Time) from CYAZ Reporting Station
Light Fog Light Fog  
Wind Chill: 54°   Ceiling: 1400
Heat Index: 54°   Visibility: 10mi
Dew Point: 52°   Wind: 5mph
Humidity: 94%   Direction: 140°SE
Pressure: 30.08"   Gusts: NA
Location:  49.38°N, 126.54°W
Report Text: CYAZ 252200Z 14004KT 10SM BCFG SCT005 BKN014 OVC220 12/11 A3008 RMK SF3SC3CI2 VIS LWR SW-NW SLP186
Loading
Personal Weather Stations






























Interactive Weather Map New forecast layout! Learn more

10-Day Weather Forecast

Advertisements
Track Severe Weather on mobile